Time;durP1;ratioP1;P1;durP2;ratioP2;P2;SDS_P1;SDS_P2;PMS_P1;PMS_P2;Temp;Humidity;BMP_temperature;BMP_pressure;BME280_temperature;BME280_humidity;BME280_pressure;Samples;Min_cycle;Max_cycle;Signal;HPM_P1;HPM_P2
2021/06/19 00:02:01;;;;;;;8.27;3.60;;;;;;;22.11;58.79;99991.22;6345671;28;20086;-63
2021/06/19 00:05:03;;;;;;;6.05;3.08;;;;;;;22.13;58.57;99976.78;6345653;28;20133;-63
2021/06/19 00:08:04;;;;;;;3.85;3.10;;;;;;;22.16;58.40;99980.09;6345565;28;20039;-64
2021/06/19 00:11:05;;;;;;;7.50;3.33;;;;;;;22.08;58.16;99981.75;6346532;28;20119;-64
2021/06/19 00:14:06;;;;;;;8.03;3.23;;;;;;;21.93;58.46;99986.94;6346588;28;20043;-63
2021/06/19 00:17:07;;;;;;;6.03;3.07;;;;;;;21.90;58.04;99981.13;6345391;28;20776;-63
2021/06/19 00:20:23;;;;;;;10.33;3.53;;;;;;;21.93;58.11;99980.81;6345275;28;20501;-63
2021/06/19 00:23:23;;;;;;;7.97;3.42;;;;;;;21.93;58.46;99978.16;6346417;28;20497;-64
2021/06/19 00:26:24;;;;;;;8.43;3.03;;;;;;;21.88;57.93;99980.47;6345186;28;20044;-63
2021/06/19 00:29:25;;;;;;;8.97;3.50;;;;;;;21.81;58.35;99967.06;6345201;28;20085;-63
2021/06/19 00:32:26;;;;;;;8.57;3.30;;;;;;;21.73;58.93;99972.38;6344858;28;20295;-64
2021/06/19 00:35:27;;;;;;;7.70;3.35;;;;;;;21.75;58.23;99964.25;6345188;28;20051;-63
2021/06/19 00:38:28;;;;;;;8.03;3.30;;;;;;;21.57;59.44;99962.59;6345061;28;20043;-64
2021/06/19 00:41:29;;;;;;;6.13;3.30;;;;;;;21.55;59.29;99956.63;6345043;28;20054;-64
2021/06/19 00:44:30;;;;;;;9.15;3.85;;;;;;;21.59;59.28;99962.44;6346219;28;20051;-63
2021/06/19 00:47:32;;;;;;;9.90;3.70;;;;;;;21.65;59.26;99961.75;6344995;28;20040;-64
2021/06/19 00:50:33;;;;;;;5.40;3.40;;;;;;;21.65;59.32;99959.94;6345904;28;20047;-63
2021/06/19 00:53:34;;;;;;;9.43;3.70;;;;;;;21.58;59.42;99958.09;6327935;28;20036;-64
2021/06/19 00:56:36;;;;;;;10.63;3.60;;;;;;;21.57;59.43;99956.47;6327772;28;20059;-63
2021/06/19 00:59:37;;;;;;;8.10;3.70;;;;;;;21.48;59.72;99955.63;6346505;28;20047;-64
2021/06/19 01:02:39;;;;;;;8.18;3.80;;;;;;;21.37;60.74;99958.56;6349996;28;20070;-63
2021/06/19 01:05:40;;;;;;;7.53;4.05;;;;;;;21.31;60.45;99955.59;6333283;28;20051;-63
2021/06/19 01:08:41;;;;;;;12.30;3.63;;;;;;;21.32;60.44;99962.56;6349860;28;20136;-64
2021/06/19 01:11:42;;;;;;;6.73;3.90;;;;;;;21.25;60.72;99964.22;6349722;28;20287;-63
2021/06/19 01:14:43;;;;;;;6.53;3.50;;;;;;;21.18;61.45;99967.69;6349614;28;20055;-63
2021/06/19 01:17:44;;;;;;;9.98;4.30;;;;;;;21.28;60.70;99963.88;6349506;28;20035;-63
2021/06/19 01:20:45;;;;;;;8.52;3.83;;;;;;;21.25;61.05;99960.72;6349505;28;20486;-63
2021/06/19 01:23:47;;;;;;;12.80;4.20;;;;;;;21.28;60.60;99966.53;6349649;28;20050;-63
2021/06/19 01:26:47;;;;;;;7.82;3.70;;;;;;;21.29;60.69;99964.72;6350590;28;20093;-63
2021/06/19 01:29:48;;;;;;;7.50;3.77;;;;;;;21.22;61.03;99967.19;6350871;27;20075;-63
2021/06/19 01:32:51;;;;;;;10.13;3.83;;;;;;;21.12;61.28;99967.34;6349143;28;20378;-63
2021/06/19 01:35:51;;;;;;;6.72;3.92;;;;;;;21.19;60.98;99967.53;6350434;28;20228;-63
2021/06/19 01:38:55;;;;;;;7.13;3.70;;;;;;;21.12;61.19;99971.81;6349042;28;20118;-64
2021/06/19 01:41:55;;;;;;;5.30;3.67;;;;;;;21.12;61.42;99971.81;6350158;27;20042;-63
2021/06/19 01:44:56;;;;;;;5.13;3.90;;;;;;;21.08;60.77;99973.97;6350242;28;20044;-63
2021/06/19 01:48:05;;;;;;;10.07;4.10;;;;;;;21.06;61.26;99973.31;6348911;28;20085;-63
2021/06/19 01:51:08;;;;;;;7.97;4.13;;;;;;;20.92;62.44;99969.50;6349796;28;20097;-63
2021/06/19 01:54:09;;;;;;;6.20;3.60;;;;;;;20.96;61.69;99974.44;6350026;28;20040;-63
2021/06/19 01:57:09;;;;;;;11.47;4.20;;;;;;;21.00;61.24;99970.47;6349879;27;20258;-63
2021/06/19 02:00:17;;;;;;;6.60;4.07;;;;;;;20.95;62.06;99972.81;6331689;28;20036;-63
2021/06/19 02:03:17;;;;;;;9.25;3.97;;;;;;;20.86;62.34;99969.31;6349794;28;20044;-63
2021/06/19 02:06:18;;;;;;;8.10;4.27;;;;;;;20.96;61.21;99970.00;6349605;28;20610;-64
2021/06/19 02:09:19;;;;;;;8.37;4.27;;;;;;;20.98;61.56;99964.50;6348362;28;20176;-63
2021/06/19 02:12:20;;;;;;;9.43;4.30;;;;;;;20.95;61.42;99973.63;6349169;28;20071;-63
2021/06/19 02:15:22;;;;;;;5.13;3.90;;;;;;;20.92;61.85;99973.97;6348331;28;20288;-63
2021/06/19 02:18:23;;;;;;;8.32;4.22;;;;;;;20.89;61.78;99968.97;6348147;28;20040;-63
2021/06/19 02:21:24;;;;;;;4.65;3.65;;;;;;;20.81;62.19;99975.09;6349197;28;20068;-63
2021/06/19 02:24:25;;;;;;;8.80;4.07;;;;;;;20.86;62.02;99979.91;6347969;28;20039;-63
2021/06/19 02:27:25;;;;;;;7.57;4.67;;;;;;;20.77;62.30;99978.22;6349417;28;20085;-63
2021/06/19 02:30:35;;;;;;;10.20;4.23;;;;;;;20.64;63.21;99976.03;6347858;28;20050;-64
2021/06/19 02:33:36;;;;;;;9.10;4.63;;;;;;;20.69;63.28;99976.38;6348841;28;20121;-64
2021/06/19 02:36:36;;;;;;;13.40;4.97;;;;;;;20.60;63.13;99978.16;6347748;28;20502;-64
2021/06/19 02:39:37;;;;;;;8.50;4.53;;;;;;;20.67;62.96;99978.34;6348777;28;20425;-63
2021/06/19 02:42:38;;;;;;;8.97;4.53;;;;;;;20.58;63.17;99980.16;6348820;28;20040;-63
2021/06/19 02:45:40;;;;;;;10.27;4.87;;;;;;;20.58;63.08;99974.00;6348737;28;20036;-63
2021/06/19 02:48:40;;;;;;;10.57;4.57;;;;;;;20.60;63.50;99977.34;6348663;28;20040;-63
2021/06/19 02:51:41;;;;;;;9.97;4.90;;;;;;;20.58;63.62;99971.34;6330207;28;20046;-64
2021/06/19 02:54:42;;;;;;;10.77;4.80;;;;;;;20.48;63.88;99972.28;6347251;28;20040;-63
2021/06/19 02:57:43;;;;;;;8.27;4.97;;;;;;;20.46;64.02;99974.28;6348372;28;20087;-63
2021/06/19 03:00:44;;;;;;;10.27;5.00;;;;;;;20.56;63.39;99973.31;6347152;28;20043;-63
2021/06/19 03:03:45;;;;;;;11.07;4.80;;;;;;;20.50;64.05;99974.78;6348312;28;20052;-63
2021/06/19 03:06:45;;;;;;;13.90;4.63;;;;;;;20.47;64.41;99975.94;6348175;28;20038;-63
2021/06/19 03:09:46;;;;;;;8.50;4.80;;;;;;;20.46;64.55;99973.44;6348141;28;20093;-63
2021/06/19 03:12:47;;;;;;;6.80;4.67;;;;;;;20.43;64.74;99974.59;6348020;28;20383;-63
2021/06/19 03:15:48;;;;;;;12.45;5.05;;;;;;;20.42;64.97;99970.28;6346778;28;20052;-63
2021/06/19 03:18:49;;;;;;;13.70;5.00;;;;;;;20.51;64.78;99977.28;6347910;28;20059;-63
2021/06/19 03:21:49;;;;;;;12.23;4.80;;;;;;;20.46;64.71;99979.56;6346625;28;20478;-63
2021/06/19 03:24:50;;;;;;;12.87;4.70;;;;;;;20.43;65.15;99979.09;6312264;28;20119;-63
2021/06/19 03:27:51;;;;;;;8.13;4.27;;;;;;;20.43;66.91;99976.44;6346533;28;20412;-63
2021/06/19 03:30:52;;;;;;;7.83;4.73;;;;;;;20.52;66.01;99978.94;6347520;28;20322;-63
2021/06/19 03:33:54;;;;;;;13.00;4.77;;;;;;;20.57;65.23;99978.47;6329358;28;20050;-63
2021/06/19 03:36:59;;;;;;;5.95;4.95;;;;;;;20.44;65.94;99970.94;6347523;28;20078;-63
2021/06/19 03:40:00;;;;;;;7.10;5.15;;;;;;;20.54;65.97;99973.47;6346171;28;20135;-63
2021/06/19 03:43:00;;;;;;;9.13;5.13;;;;;;;20.59;65.88;99981.81;6346059;28;20047;-63
2021/06/19 03:46:01;;;;;;;8.10;5.00;;;;;;;20.54;65.69;99976.13;6347232;28;20397;-63
2021/06/19 03:49:02;;;;;;;8.20;4.87;;;;;;;20.46;66.52;99981.41;6346179;28;20032;-63
2021/06/19 03:52:03;;;;;;;7.17;4.83;;;;;;;20.54;65.83;99976.13;6328780;28;20054;-63
2021/06/19 03:55:06;;;;;;;9.93;4.63;;;;;;;20.48;66.68;99969.63;6346127;28;20051;-63
2021/06/19 03:58:06;;;;;;;8.43;4.70;;;;;;;20.61;66.43;99976.34;6346995;28;20039;-63
2021/06/19 04:01:09;;;;;;;9.17;5.07;;;;;;;20.60;66.73;99974.69;6345673;28;20504;-63
2021/06/19 04:04:09;;;;;;;10.80;4.90;;;;;;;20.64;67.34;99968.91;6346854;28;20040;-63
2021/06/19 04:07:11;;;;;;;14.00;5.00;;;;;;;20.71;66.73;99979.69;6346835;28;20059;-63
2021/06/19 04:10:14;;;;;;;16.00;4.65;;;;;;;20.70;66.71;99976.22;6345432;28;20085;-63
2021/06/19 04:13:15;;;;;;;8.45;5.10;;;;;;;20.72;67.67;99976.06;6346656;28;20117;-63
2021/06/19 04:16:15;;;;;;;9.40;4.53;;;;;;;20.82;66.76;99971.47;6362576;27;20060;-63
2021/06/19 04:19:16;;;;;;;14.47;5.20;;;;;;;20.84;67.35;99968.66;6345351;28;20052;-63
2021/06/19 04:22:17;;;;;;;10.43;4.63;;;;;;;20.88;66.39;99970.81;6346562;28;20451;-63
2021/06/19 04:25:19;;;;;;;8.07;4.50;;;;;;;21.04;65.16;99969.16;6328281;28;20071;-63
2021/06/19 04:28:19;;;;;;;12.50;4.53;;;;;;;21.04;66.59;99972.63;6328407;28;20031;-63
2021/06/19 04:31:20;;;;;;;6.90;4.30;;;;;;;21.08;67.59;99973.16;6346263;28;20051;-63
2021/06/19 04:34:22;;;;;;;13.07;5.30;;;;;;;21.14;67.69;99972.50;6346484;28;20044;-63
2021/06/19 04:37:26;;;;;;;11.30;4.22;;;;;;;21.10;66.49;99973.81;6346408;28;20547;-63
2021/06/19 04:46:49;;;;;;;7.68;4.10;;;;;;;21.30;66.44;99977.00;6338925;28;20070;-63
2021/06/19 04:49:50;;;;;;;8.07;3.93;;;;;;;21.31;67.50;99983.94;6344920;28;20440;-63
2021/06/19 04:52:50;;;;;;;20.33;4.50;;;;;;;21.38;68.99;99977.00;6327779;28;20042;-63
2021/06/19 04:55:51;;;;;;;10.90;3.73;;;;;;;21.52;65.41;99978.19;6328070;28;20044;-63
2021/06/19 04:58:52;;;;;;;10.23;4.00;;;;;;;21.53;66.33;99977.19;6346043;28;20493;-63
2021/06/19 05:01:53;;;;;;;16.30;4.80;;;;;;;21.59;65.37;99979.19;6344711;28;20047;-63
2021/06/19 05:04:54;;;;;;;8.27;4.20;;;;;;;21.69;65.24;99979.00;6344754;28;20055;-63
2021/06/19 05:07:55;;;;;;;10.93;3.63;;;;;;;21.76;65.88;99981.81;6344881;28;20069;-63
2021/06/19 05:10:57;;;;;;;7.20;3.63;;;;;;;21.85;63.50;99989.63;6345977;28;20118;-63
2021/06/19 05:13:58;;;;;;;5.47;3.60;;;;;;;21.91;64.78;99994.25;6344601;28;20043;-63
2021/06/19 05:16:58;;;;;;;6.00;3.60;;;;;;;21.97;64.45;99991.91;6345845;28;20043;-63
2021/06/19 05:19:59;;;;;;;9.63;3.20;;;;;;;22.06;64.07;99990.91;6345751;28;20040;-62
2021/06/19 05:23:00;;;;;;;4.97;3.47;;;;;;;22.14;61.94;99989.06;6344552;28;20052;-63
2021/06/19 05:26:01;;;;;;;5.93;3.10;;;;;;;22.22;62.82;99992.69;6345781;28;20051;-62
2021/06/19 05:29:02;;;;;;;7.33;3.60;;;;;;;22.30;62.26;99995.38;6327693;28;20043;-63
2021/06/19 05:32:03;;;;;;;5.03;2.97;;;;;;;22.36;62.10;99997.31;6345575;28;20048;-63
2021/06/19 05:35:05;;;;;;;8.15;3.53;;;;;;;22.43;62.88;99990.31;6345659;28;20035;-62
2021/06/19 05:38:06;;;;;;;8.00;2.95;;;;;;;22.55;60.24;99996.09;6344390;28;20387;-63
2021/06/19 05:41:07;;;;;;;5.60;3.03;;;;;;;22.58;62.15;99995.72;6344230;28;20418;-63
2021/06/19 05:44:08;;;;;;;5.80;2.90;;;;;;;22.63;61.54;99993.41;6344300;28;20044;-63
2021/06/19 05:47:09;;;;;;;6.47;2.80;;;;;;;22.71;60.97;99981.88;6330525;28;20395;-63
2021/06/19 05:50:10;;;;;;;9.03;3.00;;;;;;;22.79;62.29;99983.66;6350045;28;20062;-63
2021/06/19 05:53:11;;;;;;;6.32;3.00;;;;;;;22.87;62.67;99992.44;6349883;28;20070;-63
2021/06/19 05:56:12;;;;;;;8.07;3.33;;;;;;;22.94;59.63;99998.72;6348897;28;20043;-63
2021/06/19 05:59:13;;;;;;;5.67;3.00;;;;;;;23.03;60.71;100002.19;6349841;28;20119;-63
2021/06/19 06:02:13;;;;;;;10.70;3.20;;;;;;;23.11;59.67;100006.63;6349854;28;20044;-63
2021/06/19 06:05:14;;;;;;;5.20;2.70;;;;;;;23.23;60.20;100007.88;6365773;27;20051;-63
2021/06/19 06:08:15;;;;;;;5.33;2.83;;;;;;;23.32;59.58;100006.81;6349788;28;20140;-63
2021/06/19 06:11:15;;;;;;;4.43;2.90;;;;;;;23.40;60.93;100008.59;6331424;28;20085;-63
2021/06/19 06:14:16;;;;;;;4.43;2.63;;;;;;;23.51;59.49;100010.84;6349060;28;20048;-63
2021/06/19 06:17:17;;;;;;;3.60;2.93;;;;;;;23.60;59.07;100016.09;6314265;28;20028;-63
2021/06/19 06:20:18;;;;;;;5.53;2.67;;;;;;;23.72;58.48;100019.97;6349194;28;20062;-63
2021/06/19 06:23:21;;;;;;;3.00;2.47;;;;;;;23.83;58.25;100021.41;6349277;28;20549;-63
2021/06/19 06:26:22;;;;;;;3.72;2.35;;;;;;;23.90;57.43;100027.66;6349242;28;20039;-63
2021/06/19 06:29:22;;;;;;;4.40;2.33;;;;;;;23.94;57.44;100024.44;6348833;28;20051;-62
2021/06/19 06:32:23;;;;;;;8.17;2.50;;;;;;;24.05;57.20;100011.69;6348986;28;20085;-63
2021/06/19 06:35:24;;;;;;;3.03;2.53;;;;;;;24.19;58.10;99997.56;6348912;28;20276;-63
2021/06/19 06:38:25;;;;;;;3.97;2.37;;;;;;;24.27;57.13;100010.78;6347259;28;20116;-62
2021/06/19 06:41:25;;;;;;;4.67;2.83;;;;;;;24.33;56.98;100012.72;6347549;28;20039;-63
2021/06/19 06:44:27;;;;;;;6.53;2.60;;;;;;;24.46;56.66;100017.44;6348640;28;20436;-63
2021/06/19 06:47:28;;;;;;;6.00;2.67;;;;;;;24.54;55.88;100011.19;6348625;28;20054;-63
2021/06/19 06:50:29;;;;;;;7.27;2.70;;;;;;;24.60;57.07;100020.28;6347653;28;20051;-63
2021/06/19 06:53:30;;;;;;;2.95;2.22;;;;;;;24.63;55.94;100023.41;6347351;28;20181;-64
2021/06/19 06:56:30;;;;;;;3.73;2.23;;;;;;;24.70;54.89;100016.31;6330349;28;20044;-64
2021/06/19 06:59:31;;;;;;;4.80;2.57;;;;;;;24.77;54.63;100018.22;6347567;28;20040;-64
2021/06/19 07:02:32;;;;;;;3.80;2.30;;;;;;;24.87;51.22;100013.41;6347187;28;20043;-64
2021/06/19 07:05:33;;;;;;;3.75;2.30;;;;;;;24.93;51.01;100018.84;6348285;28;20039;-63
2021/06/19 07:08:34;;;;;;;10.52;2.83;;;;;;;25.08;49.88;100009.94;6347005;28;20035;-64
2021/06/19 07:11:35;;;;;;;2.97;2.00;;;;;;;25.29;50.29;100015.34;6347061;28;20051;-63
2021/06/19 07:14:35;;;;;;;8.20;3.70;;;;;;;25.31;51.94;100020.50;6347890;28;20079;-65
2021/06/19 07:17:36;;;;;;;3.60;2.00;;;;;;;25.42;47.73;100024.50;6330088;28;20305;-63
2021/06/19 07:20:38;;;;;;;5.85;2.35;;;;;;;25.48;48.13;100027.22;6347116;28;20089;-66
2021/06/19 07:23:39;;;;;;;3.20;2.20;;;;;;;25.50;48.47;100024.38;6346797;28;20047;-66
2021/06/19 07:26:39;;;;;;;5.00;2.50;;;;;;;25.67;48.53;100020.41;6346460;28;20040;-63
2021/06/19 07:29:41;;;;;;;3.87;2.10;;;;;;;25.81;47.22;100031.22;6347619;28;20050;-62
2021/06/19 07:32:43;;;;;;;5.50;2.22;;;;;;;25.74;49.79;100018.63;6347743;28;20043;-62
2021/06/19 07:35:43;;;;;;;4.20;2.00;;;;;;;25.85;46.10;100022.59;6346394;28;20089;-62
2021/06/19 07:38:44;;;;;;;2.67;2.10;;;;;;;25.85;46.19;100021.78;6346465;28;20093;-63
2021/06/19 07:41:45;;;;;;;3.90;2.20;;;;;;;25.78;48.92;100018.22;6329313;28;20054;-63
2021/06/19 07:44:46;;;;;;;3.93;2.40;;;;;;;25.87;47.34;100019.75;6347227;28;20279;-63
2021/06/19 07:47:46;;;;;;;3.47;2.03;;;;;;;25.97;49.75;100020.25;6346259;28;20485;-62
2021/06/19 07:50:47;;;;;;;2.20;1.90;;;;;;;26.04;45.16;100012.28;6347045;28;20069;-62
2021/06/19 07:53:48;;;;;;;2.23;2.03;;;;;;;26.04;44.71;100018.44;6345742;28;20048;-63
2021/06/19 07:56:49;;;;;;;4.40;2.10;;;;;;;26.08;46.00;100017.03;6328976;28;20622;-63
2021/06/19 07:59:50;;;;;;;5.47;2.00;;;;;;;26.10;45.89;100009.66;6345822;28;20108;-65
2021/06/19 08:02:51;;;;;;;2.30;1.95;;;;;;;26.19;45.47;100001.47;6346351;28;20077;-66
2021/06/19 08:05:52;;;;;;;5.03;1.80;;;;;;;26.21;45.80;99999.44;6347415;28;20039;-66
2021/06/19 08:08:54;;;;;;;2.57;1.80;;;;;;;26.29;45.52;99997.41;6347095;28;20044;-67
2021/06/19 08:11:56;;;;;;;3.47;2.20;;;;;;;26.32;46.95;99997.03;6347096;28;20302;-67
2021/06/19 08:14:57;;;;;;;9.52;2.03;;;;;;;26.43;44.62;100001.00;6345684;28;20514;-66
2021/06/19 08:17:58;;;;;;;5.10;1.73;;;;;;;26.46;44.57;100003.28;6346939;28;20075;-67
2021/06/19 08:21:00;;;;;;;6.40;2.07;;;;;;;26.58;45.91;99992.84;6345886;28;20127;-65
2021/06/19 08:24:01;;;;;;;7.15;2.15;;;;;;;26.60;46.19;100003.34;6345313;28;20036;-66
2021/06/19 08:27:03;;;;;;;5.17;2.20;;;;;;;26.65;45.84;99988.34;6346709;28;20064;-65
2021/06/19 08:30:06;;;;;;;3.25;2.03;;;;;;;26.68;46.62;100012.03;6346532;28;20047;-66
2021/06/19 08:33:07;;;;;;;4.47;1.90;;;;;;;26.61;46.82;100007.69;6346382;28;20051;-65
2021/06/19 08:36:07;;;;;;;3.63;2.38;;;;;;;26.74;46.03;100003.19;6345122;28;20097;-65
2021/06/19 08:39:08;;;;;;;3.65;2.20;;;;;;;26.82;44.98;100007.56;6346345;28;20051;-65
2021/06/19 08:42:09;;;;;;;3.30;2.40;;;;;;;26.92;45.79;100001.81;6346418;28;20044;-65
2021/06/19 08:45:10;;;;;;;2.90;1.95;;;;;;;26.85;44.78;99998.28;6346214;28;20048;-66
2021/06/19 08:48:12;;;;;;;2.80;2.13;;;;;;;26.83;47.81;99995.84;6345174;28;20047;-66
2021/06/19 08:51:12;;;;;;;;;;;;;;;26.98;45.26;100005.56;6345311;28;20119;-66
2021/06/19 08:54:14;;;;;;;4.40;2.03;;;;;;;27.03;43.72;99995.88;6346284;28;19920;-65
2021/06/19 08:57:15;;;;;;;9.68;3.00;;;;;;;26.86;50.73;99999.97;6327743;28;20130;-65
2021/06/19 09:00:17;;;;;;;3.10;2.13;;;;;;;26.87;45.52;100004.28;6344934;28;20091;-66
2021/06/19 09:03:28;;;;;;;3.47;1.95;;;;;;;26.88;45.72;99998.72;6328053;28;20050;-65
2021/06/19 09:06:31;;;;;;;10.18;2.50;;;;;;;26.93;50.04;100000.78;6345911;28;20071;-65
2021/06/19 09:09:32;;;;;;;5.65;2.17;;;;;;;26.73;48.79;99996.22;6345899;28;20113;-64
2021/06/19 09:12:34;;;;;;;;;;;;;;;26.83;48.32;99995.00;6346768;28;20354;-64
2021/06/19 09:15:39;;;;;;;;;;;;;;;26.77;46.98;99995.78;6345975;28;20315;-66
2021/06/19 09:18:40;;;;;;;2.65;2.10;;;;;;;26.92;46.99;99994.63;6346325;28;20124;-65
2021/06/19 09:21:41;;;;;;;2.30;2.10;;;;;;;27.19;46.59;99994.66;6348521;28;20048;-64
2021/06/19 09:24:43;;;;;;;4.32;2.22;;;;;;;27.26;47.95;99995.56;6350937;28;20266;-65
2021/06/19 09:27:47;;;;;;;4.30;2.08;;;;;;;27.19;45.74;99991.19;6350649;28;20069;-65
2021/06/19 09:30:48;;;;;;;5.00;2.20;;;;;;;27.19;48.07;99996.53;6350676;28;20390;-67
2021/06/19 09:34:07;;;;;;;3.43;2.23;;;;;;;27.28;44.76;99979.25;6349036;28;20044;-67
2021/06/19 09:37:08;;;;;;;5.28;2.10;;;;;;;27.27;44.07;99983.78;6350419;28;20276;-68
2021/06/19 09:40:19;;;;;;;2.53;1.95;;;;;;;27.17;44.43;99985.19;6350319;28;20040;-67
2021/06/19 09:43:29;;;;;;;4.38;2.10;;;;;;;27.05;45.54;99982.28;6332150;28;20046;-66
2021/06/19 09:46:30;;;;;;;8.13;2.20;;;;;;;26.87;44.47;99974.81;6349029;28;20432;-66
2021/06/19 09:49:33;;;;;;;5.47;2.17;;;;;;;26.90;44.04;99979.78;6349044;28;20073;-64
2021/06/19 09:52:34;;;;;;;5.43;2.40;;;;;;;27.00;43.45;99980.22;6350020;28;20059;-64
2021/06/19 09:55:34;;;;;;;2.92;2.20;;;;;;;27.29;41.74;99980.91;6349115;28;20047;-64
2021/06/19 09:58:37;;;;;;;5.83;2.20;;;;;;;27.34;42.17;99973.09;6349812;28;20055;-64
2021/06/19 10:01:42;;;;;;;5.75;2.60;;;;;;;27.18;43.34;99970.75;6349892;28;20275;-64
2021/06/19 10:04:49;;;;;;;4.78;2.45;;;;;;;27.20;44.44;99979.41;6350019;28;20066;-66
2021/06/19 10:07:51;;;;;;;4.30;2.50;;;;;;;27.28;42.70;99969.38;6348771;28;20093;-66
2021/06/19 10:10:52;;;;;;;5.30;2.47;;;;;;;27.56;44.19;99970.22;6348685;28;20455;-65
2021/06/19 10:13:55;;;;;;;4.43;2.17;;;;;;;27.71;41.81;99957.41;6349864;28;20075;-66
2021/06/19 10:16:57;;;;;;;2.53;1.98;;;;;;;27.63;41.05;99962.97;6348352;28;20067;-65
2021/06/19 10:20:01;;;;;;;2.55;2.10;;;;;;;27.62;42.90;99967.53;6348775;28;20071;-65
2021/06/19 10:23:02;;;;;;;7.15;2.72;;;;;;;27.38;43.08;99960.09;6348659;28;20066;-63
2021/06/19 10:26:04;;;;;;;3.85;2.25;;;;;;;27.33;41.55;99955.38;6348476;28;20478;-65
2021/06/19 10:29:06;;;;;;;5.00;2.20;;;;;;;27.57;40.34;99961.94;6348406;28;20047;-65
2021/06/19 10:32:07;;;;;;;2.67;2.10;;;;;;;27.83;41.61;99960.28;6349293;28;20035;-65
2021/06/19 10:35:08;;;;;;;5.88;2.30;;;;;;;28.03;37.37;99942.31;6349343;28;20039;-65
2021/06/19 10:38:18;;;;;;;6.20;2.10;;;;;;;28.17;38.81;99947.63;6349347;28;20500;-65
2021/06/19 10:41:40;;;;;;;7.03;2.38;;;;;;;27.99;40.14;99942.97;6349343;28;20048;-66
2021/06/19 10:44:58;;;;;;;2.33;2.03;;;;;;;28.24;40.14;99943.91;6347327;28;20553;-66
2021/06/19 10:48:08;;;;;;;2.03;1.83;;;;;;;28.47;38.55;99940.72;6347644;28;20070;-63
2021/06/19 10:51:26;;;;;;;5.13;2.05;;;;;;;28.71;38.56;99935.69;6348592;28;20036;-63
2021/06/19 10:54:27;;;;;;;7.72;1.88;;;;;;;28.50;35.48;99931.47;6348898;28;20417;-63
2021/06/19 10:57:48;;;;;;;3.45;2.00;;;;;;;28.28;37.88;99933.59;6330387;28;20114;-63
2021/06/19 11:00:50;;;;;;;6.30;2.10;;;;;;;28.48;39.64;99926.28;6346790;28;20076;-63
2021/06/19 11:03:54;;;;;;;2.88;1.90;;;;;;;28.70;38.45;99931.34;6348343;28;20050;-63
2021/06/19 11:06:55;;;;;;;8.60;1.95;;;;;;;28.86;37.90;99932.69;6348209;28;20117;-63
2021/06/19 11:09:55;;;;;;;2.20;1.80;;;;;;;29.02;38.27;99926.78;6330012;28;20044;-63
2021/06/19 11:12:56;;;;;;;6.55;2.42;;;;;;;29.02;39.09;99926.78;6348049;28;20040;-63
2021/06/19 11:16:02;;;;;;;2.72;1.70;;;;;;;28.83;36.45;99922.41;6346709;28;20048;-63
2021/06/19 11:19:03;;;;;;;5.15;1.90;;;;;;;28.43;36.31;99922.56;6346682;28;20043;-63
2021/06/19 11:22:43;;;;;;;5.05;1.80;;;;;;;28.22;37.29;99923.69;6346643;28;20508;-62
2021/06/19 11:25:52;;;;;;;3.85;2.03;;;;;;;28.30;39.58;99921.59;6347731;28;20104;-62
2021/06/19 11:28:54;;;;;;;3.83;2.00;;;;;;;28.64;38.88;99919.63;6346523;28;20482;-61
2021/06/19 11:31:55;;;;;;;5.65;2.25;;;;;;;28.68;39.47;99922.66;6329526;28;20040;-61
2021/06/19 11:35:01;;;;;;;7.22;2.25;;;;;;;28.89;38.36;99919.66;6347443;28;20494;-61
2021/06/19 11:38:01;;;;;;;4.53;1.90;;;;;;;28.84;37.22;99911.41;6347375;28;20405;-61
2021/06/19 11:41:10;;;;;;;2.20;1.95;;;;;;;28.59;39.27;99915.94;6347411;28;20047;-64
2021/06/19 11:44:16;;;;;;;3.92;1.80;;;;;;;28.60;38.53;99906.81;6345604;28;20458;-64
2021/06/19 11:47:16;;;;;;;4.63;1.90;;;;;;;28.79;39.57;99911.25;6346036;28;20035;-64
2021/06/19 11:50:17;;;;;;;3.83;2.10;;;;;;;28.86;39.48;99909.34;6347337;28;20379;-64
2021/06/19 11:53:35;;;;;;;3.20;2.08;;;;;;;29.08;39.38;99903.63;6347053;28;20051;-64
2021/06/19 11:56:40;;;;;;;3.42;1.65;;;;;;;29.26;38.76;99897.50;6345975;28;20044;-64
2021/06/19 11:59:41;;;;;;;4.97;2.03;;;;;;;29.47;37.83;99888.22;6346992;28;20063;-64
2021/06/19 12:02:42;;;;;;;3.05;1.70;;;;;;;29.45;38.63;99884.94;6346985;28;20051;-64
2021/06/19 12:05:46;;;;;;;3.47;1.90;;;;;;;29.50;36.48;99883.22;6346822;28;20082;-65
2021/06/19 12:08:47;;;;;;;4.63;1.92;;;;;;;29.68;38.52;99878.91;6345455;28;20055;-64
2021/06/19 12:11:51;;;;;;;5.63;1.80;;;;;;;29.92;37.87;99888.00;6347177;28;20046;-64
2021/06/19 12:14:52;;;;;;;4.82;1.95;;;;;;;30.11;34.05;99869.97;6345295;28;20047;-63
2021/06/19 12:17:53;;;;;;;1.92;1.60;;;;;;;30.23;35.08;99876.22;6328346;28;20050;-61
2021/06/19 12:21:03;;;;;;;3.95;1.75;;;;;;;30.33;36.14;99859.53;6346951;28;20052;-61
2021/06/19 12:24:38;;;;;;;2.17;1.50;;;;;;;29.75;36.17;99882.38;6346578;28;20104;-61
2021/06/19 12:27:38;;;;;;;3.00;1.58;;;;;;;29.52;37.13;99888.38;6346629;28;20059;-62
2021/06/19 12:30:53;;;;;;;1.90;1.52;;;;;;;30.04;34.20;99886.19;6345438;28;20048;-64
2021/06/19 12:33:59;;;;;;;2.47;1.88;;;;;;;29.68;36.77;99884.28;6346521;28;20036;-63
2021/06/19 12:37:00;;;;;;;2.50;1.67;;;;;;;30.61;33.78;99888.56;6346427;28;20035;-64
2021/06/19 12:40:02;;;;;;;;;;;;;;;32.68;30.15;99890.22;6346852;28;20052;-64
2021/06/19 12:43:08;;;;;;;2.72;1.50;;;;;;;34.10;28.13;99888.03;6346640;28;19942;-64
2021/06/19 12:46:15;;;;;;;3.42;1.52;;;;;;;35.13;26.63;99886.34;6346345;28;20096;-66
2021/06/19 12:49:16;;;;;;;4.68;1.65;;;;;;;36.37;23.57;99888.63;6346499;28;20050;-66
2021/06/19 12:52:17;;;;;;;5.47;1.83;;;;;;;36.88;25.45;99887.84;6346448;28;20039;-65
2021/06/19 12:55:18;;;;;;;2.05;1.58;;;;;;;37.29;23.96;99882.41;6346711;28;20092;-66
2021/06/19 12:58:19;;;;;;;6.85;1.65;;;;;;;37.14;23.55;99875.09;6351807;28;20445;-67
2021/06/19 13:01:26;;;;;;;3.10;1.60;;;;;;;37.30;23.72;99873.16;6352149;28;20048;-62
2021/06/19 13:04:29;;;;;;;3.22;1.45;;;;;;;37.36;23.81;99866.63;6351374;28;20413;-66
2021/06/19 13:07:31;;;;;;;3.53;1.58;;;;;;;36.82;24.45;99869.91;6350821;28;20066;-66
2021/06/19 13:10:33;;;;;;;3.22;1.73;;;;;;;36.42;24.36;99856.00;6351022;28;20059;-62
2021/06/19 13:13:45;;;;;;;4.70;1.50;;;;;;;35.83;26.32;99856.38;6351049;28;20039;-62
2021/06/19 13:16:45;;;;;;;2.25;1.52;;;;;;;34.21;25.92;99851.06;6350626;28;20050;-61
2021/06/19 13:19:46;;;;;;;5.38;1.75;;;;;;;31.77;31.10;99850.34;6350894;28;20473;-61
2021/06/19 13:23:08;;;;;;;2.67;1.80;;;;;;;31.59;30.74;99847.81;6349599;28;20050;-61
2021/06/19 13:26:41;;;;;;;3.17;2.00;;;;;;;31.51;33.04;99857.09;6349671;28;20486;-60
2021/06/19 13:29:54;;;;;;;2.00;1.90;;;;;;;31.25;33.72;99852.97;6315872;28;20113;-61
2021/06/19 13:32:58;;;;;;;2.95;1.80;;;;;;;31.21;33.76;99860.69;6350424;28;20405;-62
2021/06/19 13:35:59;;;;;;;4.40;1.80;;;;;;;31.22;33.21;99850.75;6350843;28;20549;-61
2021/06/19 13:38:59;;;;;;;;;;;;;;;31.12;34.89;99848.66;6349660;28;20040;-61
2021/06/19 13:42:15;;;;;;;4.77;2.27;;;;;;;31.24;35.00;99856.75;6350359;28;19923;-61
2021/06/19 13:45:16;;;;;;;6.32;1.95;;;;;;;31.28;32.89;99850.63;6350403;28;20051;-61
2021/06/19 13:48:17;;;;;;;;;;;;;;;31.26;33.32;99843.84;6349220;28;20054;-60
2021/06/19 13:51:17;;;;;;;4.23;1.70;;;;;;;31.17;33.82;99840.66;6350244;28;19923;-64
2021/06/19 13:54:19;;;;;;;4.07;1.92;;;;;;;31.19;35.89;99843.13;6350345;28;20063;-66
2021/06/19 13:57:20;;;;;;;7.40;2.20;;;;;;;31.05;35.60;99831.75;6350427;28;20040;-67
2021/06/19 14:00:21;;;;;;;6.10;2.40;;;;;;;31.01;35.44;99838.66;6349598;28;20039;-66
2021/06/19 14:03:24;;;;;;;;;;;;;;;30.61;33.40;99841.97;6349858;28;20044;-66
2021/06/19 14:06:25;;;;;;;5.75;2.20;;;;;;;30.51;36.28;99843.34;6349530;28;19942;-66
2021/06/19 14:09:27;;;;;;;8.80;2.10;;;;;;;30.53;35.01;99841.25;6349913;28;20462;-66
2021/06/19 14:12:28;;;;;;;3.38;1.95;;;;;;;30.41;34.50;99851.16;6349626;28;20044;-60
2021/06/19 14:15:28;;;;;;;4.38;2.47;;;;;;;30.17;33.85;99838.66;6349962;28;20039;-67
2021/06/19 14:18:29;;;;;;;5.50;2.08;;;;;;;29.95;36.01;99833.75;6348271;28;20543;-66
2021/06/19 14:21:30;;;;;;;8.48;2.33;;;;;;;29.63;37.01;99841.97;6349376;28;20055;-66
2021/06/19 14:24:31;;;;;;;3.22;2.00;;;;;;;29.55;36.18;99844.94;6349500;28;20460;-66